sensor_id;sensor_type;location;lat;lon;timestamp;P1;durP1;ratioP1;P2;durP2;ratioP2
55931;SDS011;41837;55.700;37.984;2023-07-09T00:01:12;44.03;;;21.33;;
55931;SDS011;41837;55.700;37.984;2023-07-09T00:03:43;47.72;;;20.00;;
55931;SDS011;41837;55.700;37.984;2023-07-09T00:06:10;29.17;;;19.23;;
55931;SDS011;41837;55.700;37.984;2023-07-09T00:08:38;43.78;;;20.52;;
55931;SDS011;41837;55.700;37.984;2023-07-09T00:11:11;45.10;;;20.38;;
55931;SDS011;41837;55.700;37.984;2023-07-09T00:13:37;38.15;;;20.65;;
55931;SDS011;41837;55.700;37.984;2023-07-09T00:16:07;38.95;;;19.20;;
55931;SDS011;41837;55.700;37.984;2023-07-09T00:18:42;37.30;;;20.02;;
55931;SDS011;41837;55.700;37.984;2023-07-09T00:21:09;47.63;;;21.05;;
55931;SDS011;41837;55.700;37.984;2023-07-09T00:23:38;33.15;;;18.38;;
55931;SDS011;41837;55.700;37.984;2023-07-09T00:26:08;36.70;;;18.52;;
55931;SDS011;41837;55.700;37.984;2023-07-09T00:28:36;33.13;;;19.00;;
55931;SDS011;41837;55.700;37.984;2023-07-09T00:31:02;44.17;;;20.02;;
55931;SDS011;41837;55.700;37.984;2023-07-09T00:33:29;40.03;;;20.08;;
55931;SDS011;41837;55.700;37.984;2023-07-09T00:35:57;44.95;;;20.30;;
55931;SDS011;41837;55.700;37.984;2023-07-09T00:38:24;45.30;;;19.95;;
55931;SDS011;41837;55.700;37.984;2023-07-09T00:41:02;47.35;;;20.85;;
55931;SDS011;41837;55.700;37.984;2023-07-09T00:43:34;38.05;;;18.77;;
55931;SDS011;41837;55.700;37.984;2023-07-09T00:49:02;40.28;;;21.45;;
55931;SDS011;41837;55.700;37.984;2023-07-09T00:51:32;39.60;;;18.70;;
55931;SDS011;41837;55.700;37.984;2023-07-09T00:54:05;46.05;;;19.90;;
55931;SDS011;41837;55.700;37.984;2023-07-09T00:56:41;39.95;;;19.98;;
55931;SDS011;41837;55.700;37.984;2023-07-09T00:59:13;56.15;;;20.50;;
55931;SDS011;41837;55.700;37.984;2023-07-09T01:01:44;49.95;;;20.50;;
55931;SDS011;41837;55.700;37.984;2023-07-09T01:04:13;43.88;;;20.08;;
55931;SDS011;41837;55.700;37.984;2023-07-09T01:06:47;52.45;;;19.65;;
55931;SDS011;41837;55.700;37.984;2023-07-09T01:09:22;48.53;;;20.88;;
55931;SDS011;41837;55.700;37.984;2023-07-09T01:11:50;44.35;;;20.63;;
55931;SDS011;41837;55.700;37.984;2023-07-09T01:14:22;41.97;;;21.80;;
55931;SDS011;41837;55.700;37.984;2023-07-09T01:17:01;41.30;;;20.58;;
55931;SDS011;41837;55.700;37.984;2023-07-09T01:19:36;37.40;;;21.17;;
55931;SDS011;41837;55.700;37.984;2023-07-09T01:22:15;43.15;;;20.42;;
55931;SDS011;41837;55.700;37.984;2023-07-09T01:27:20;40.67;;;19.15;;
55931;SDS011;41837;55.700;37.984;2023-07-09T01:29:49;41.97;;;18.75;;
55931;SDS011;41837;55.700;37.984;2023-07-09T01:32:16;42.53;;;19.35;;
55931;SDS011;41837;55.700;37.984;2023-07-09T01:34:47;37.72;;;18.15;;
55931;SDS011;41837;55.700;37.984;2023-07-09T01:37:16;32.60;;;19.00;;
55931;SDS011;41837;55.700;37.984;2023-07-09T01:39:44;41.63;;;18.58;;
55931;SDS011;41837;55.700;37.984;2023-07-09T01:42:11;36.30;;;18.15;;
55931;SDS011;41837;55.700;37.984;2023-07-09T01:44:38;40.50;;;18.50;;
55931;SDS011;41837;55.700;37.984;2023-07-09T01:47:05;30.83;;;18.27;;
55931;SDS011;41837;55.700;37.984;2023-07-09T01:49:32;37.80;;;18.50;;
55931;SDS011;41837;55.700;37.984;2023-07-09T01:52:00;33.05;;;18.25;;
55931;SDS011;41837;55.700;37.984;2023-07-09T01:54:32;35.22;;;18.30;;
55931;SDS011;41837;55.700;37.984;2023-07-09T01:57:13;35.58;;;17.30;;
55931;SDS011;41837;55.700;37.984;2023-07-09T01:59:42;30.42;;;16.42;;
55931;SDS011;41837;55.700;37.984;2023-07-09T02:02:10;32.40;;;17.13;;
55931;SDS011;41837;55.700;37.984;2023-07-09T02:04:45;35.42;;;17.40;;
55931;SDS011;41837;55.700;37.984;2023-07-09T02:07:15;35.15;;;16.92;;
55931;SDS011;41837;55.700;37.984;2023-07-09T02:09:42;53.47;;;18.50;;
55931;SDS011;41837;55.700;37.984;2023-07-09T02:12:10;44.08;;;29.63;;
55931;SDS011;41837;55.700;37.984;2023-07-09T02:14:38;38.97;;;22.90;;
55931;SDS011;41837;55.700;37.984;2023-07-09T02:17:05;32.53;;;14.32;;
55931;SDS011;41837;55.700;37.984;2023-07-09T02:19:33;24.70;;;14.60;;
55931;SDS011;41837;55.700;37.984;2023-07-09T02:21:59;33.58;;;15.60;;
55931;SDS011;41837;55.700;37.984;2023-07-09T02:24:25;24.02;;;14.77;;
55931;SDS011;41837;55.700;37.984;2023-07-09T02:26:57;25.40;;;14.02;;
55931;SDS011;41837;55.700;37.984;2023-07-09T02:29:24;30.17;;;14.48;;
55931;SDS011;41837;55.700;37.984;2023-07-09T02:31:52;22.35;;;14.48;;
55931;SDS011;41837;55.700;37.984;2023-07-09T02:34:21;22.95;;;13.00;;
55931;SDS011;41837;55.700;37.984;2023-07-09T02:36:51;31.00;;;14.60;;
55931;SDS011;41837;55.700;37.984;2023-07-09T02:39:18;21.58;;;13.15;;
55931;SDS011;41837;55.700;37.984;2023-07-09T02:41:45;25.73;;;13.88;;
55931;SDS011;41837;55.700;37.984;2023-07-09T02:44:11;26.17;;;13.93;;
55931;SDS011;41837;55.700;37.984;2023-07-09T02:46:37;28.70;;;13.40;;
55931;SDS011;41837;55.700;37.984;2023-07-09T02:49:04;27.40;;;13.10;;
55931;SDS011;41837;55.700;37.984;2023-07-09T02:51:33;24.50;;;11.80;;
55931;SDS011;41837;55.700;37.984;2023-07-09T02:54:00;21.10;;;11.93;;
55931;SDS011;41837;55.700;37.984;2023-07-09T02:56:28;22.90;;;12.27;;
55931;SDS011;41837;55.700;37.984;2023-07-09T02:58:54;22.85;;;11.90;;
55931;SDS011;41837;55.700;37.984;2023-07-09T03:01:21;27.85;;;12.30;;
55931;SDS011;41837;55.700;37.984;2023-07-09T03:03:51;22.63;;;11.35;;
55931;SDS011;41837;55.700;37.984;2023-07-09T03:06:22;25.25;;;10.60;;
55931;SDS011;41837;55.700;37.984;2023-07-09T03:08:51;22.30;;;11.43;;
55931;SDS011;41837;55.700;37.984;2023-07-09T03:11:18;26.30;;;11.13;;
55931;SDS011;41837;55.700;37.984;2023-07-09T03:13:46;21.35;;;11.43;;
55931;SDS011;41837;55.700;37.984;2023-07-09T03:16:14;28.30;;;10.65;;
55931;SDS011;41837;55.700;37.984;2023-07-09T03:18:40;18.73;;;10.43;;
55931;SDS011;41837;55.700;37.984;2023-07-09T03:21:06;15.55;;;9.82;;
55931;SDS011;41837;55.700;37.984;2023-07-09T03:23:33;18.15;;;10.02;;
55931;SDS011;41837;55.700;37.984;2023-07-09T03:25:59;22.40;;;10.05;;
55931;SDS011;41837;55.700;37.984;2023-07-09T03:28:26;16.33;;;9.52;;
55931;SDS011;41837;55.700;37.984;2023-07-09T03:30:54;18.63;;;9.13;;
55931;SDS011;41837;55.700;37.984;2023-07-09T03:33:21;18.85;;;9.27;;
55931;SDS011;41837;55.700;37.984;2023-07-09T03:35:49;15.27;;;8.50;;
55931;SDS011;41837;55.700;37.984;2023-07-09T03:38:16;15.40;;;8.27;;
55931;SDS011;41837;55.700;37.984;2023-07-09T03:40:43;12.95;;;7.90;;
55931;SDS011;41837;55.700;37.984;2023-07-09T03:43:10;18.45;;;8.98;;
55931;SDS011;41837;55.700;37.984;2023-07-09T03:45:37;16.63;;;8.80;;
55931;SDS011;41837;55.700;37.984;2023-07-09T03:48:04;17.92;;;8.50;;
55931;SDS011;41837;55.700;37.984;2023-07-09T03:50:31;14.32;;;7.57;;
55931;SDS011;41837;55.700;37.984;2023-07-09T03:52:57;12.38;;;6.90;;
55931;SDS011;41837;55.700;37.984;2023-07-09T03:55:23;14.38;;;7.90;;
55931;SDS011;41837;55.700;37.984;2023-07-09T03:57:55;14.98;;;7.43;;
55931;SDS011;41837;55.700;37.984;2023-07-09T04:00:22;15.05;;;7.85;;
55931;SDS011;41837;55.700;37.984;2023-07-09T04:02:51;15.13;;;7.50;;
55931;SDS011;41837;55.700;37.984;2023-07-09T04:05:18;17.20;;;8.68;;
55931;SDS011;41837;55.700;37.984;2023-07-09T04:07:45;19.17;;;8.35;;
55931;SDS011;41837;55.700;37.984;2023-07-09T04:10:11;15.10;;;8.55;;
55931;SDS011;41837;55.700;37.984;2023-07-09T04:12:38;13.35;;;8.38;;
55931;SDS011;41837;55.700;37.984;2023-07-09T04:15:04;14.88;;;8.27;;
55931;SDS011;41837;55.700;37.984;2023-07-09T04:17:32;15.13;;;8.00;;
55931;SDS011;41837;55.700;37.984;2023-07-09T04:19:58;12.60;;;8.40;;
55931;SDS011;41837;55.700;37.984;2023-07-09T04:22:25;13.95;;;7.40;;
55931;SDS011;41837;55.700;37.984;2023-07-09T04:24:51;13.73;;;7.78;;
55931;SDS011;41837;55.700;37.984;2023-07-09T04:27:21;12.93;;;7.60;;
55931;SDS011;41837;55.700;37.984;2023-07-09T04:29:47;9.85;;;6.45;;
55931;SDS011;41837;55.700;37.984;2023-07-09T04:32:14;9.75;;;5.43;;
55931;SDS011;41837;55.700;37.984;2023-07-09T04:34:41;7.88;;;5.32;;
55931;SDS011;41837;55.700;37.984;2023-07-09T04:37:11;8.45;;;4.95;;
55931;SDS011;41837;55.700;37.984;2023-07-09T04:39:39;7.22;;;5.30;;
55931;SDS011;41837;55.700;37.984;2023-07-09T04:42:06;9.27;;;5.60;;
55931;SDS011;41837;55.700;37.984;2023-07-09T04:44:39;8.83;;;6.83;;
55931;SDS011;41837;55.700;37.984;2023-07-09T04:47:06;8.65;;;6.40;;
55931;SDS011;41837;55.700;37.984;2023-07-09T04:49:33;12.95;;;6.05;;
55931;SDS011;41837;55.700;37.984;2023-07-09T04:51:59;8.50;;;6.22;;
55931;SDS011;41837;55.700;37.984;2023-07-09T04:54:27;8.90;;;6.40;;
55931;SDS011;41837;55.700;37.984;2023-07-09T04:56:53;11.20;;;6.32;;
55931;SDS011;41837;55.700;37.984;2023-07-09T04:59:22;8.68;;;6.07;;
55931;SDS011;41837;55.700;37.984;2023-07-09T05:01:49;8.93;;;5.72;;
55931;SDS011;41837;55.700;37.984;2023-07-09T05:04:15;8.35;;;5.00;;
55931;SDS011;41837;55.700;37.984;2023-07-09T05:06:42;8.15;;;4.47;;
55931;SDS011;41837;55.700;37.984;2023-07-09T05:09:08;6.15;;;4.55;;
55931;SDS011;41837;55.700;37.984;2023-07-09T05:11:35;5.68;;;4.93;;
55931;SDS011;41837;55.700;37.984;2023-07-09T05:14:03;8.93;;;5.40;;
55931;SDS011;41837;55.700;37.984;2023-07-09T05:16:29;7.10;;;5.22;;
55931;SDS011;41837;55.700;37.984;2023-07-09T05:18:56;8.88;;;5.10;;
55931;SDS011;41837;55.700;37.984;2023-07-09T05:21:23;7.15;;;4.82;;
55931;SDS011;41837;55.700;37.984;2023-07-09T05:23:49;9.80;;;4.97;;
55931;SDS011;41837;55.700;37.984;2023-07-09T05:26:16;6.13;;;4.00;;
55931;SDS011;41837;55.700;37.984;2023-07-09T05:28:44;6.00;;;4.28;;
55931;SDS011;41837;55.700;37.984;2023-07-09T05:31:10;6.22;;;4.00;;
55931;SDS011;41837;55.700;37.984;2023-07-09T05:33:38;5.72;;;3.38;;
55931;SDS011;41837;55.700;37.984;2023-07-09T05:36:04;5.22;;;3.35;;
55931;SDS011;41837;55.700;37.984;2023-07-09T05:38:30;4.45;;;3.10;;
55931;SDS011;41837;55.700;37.984;2023-07-09T05:41:00;5.97;;;3.58;;
55931;SDS011;41837;55.700;37.984;2023-07-09T05:43:28;5.47;;;3.15;;
55931;SDS011;41837;55.700;37.984;2023-07-09T05:45:56;5.70;;;3.30;;
55931;SDS011;41837;55.700;37.984;2023-07-09T05:48:23;6.28;;;2.70;;
55931;SDS011;41837;55.700;37.984;2023-07-09T05:50:53;6.38;;;3.40;;
55931;SDS011;41837;55.700;37.984;2023-07-09T05:53:23;4.85;;;3.00;;
55931;SDS011;41837;55.700;37.984;2023-07-09T05:55:52;7.60;;;2.83;;
55931;SDS011;41837;55.700;37.984;2023-07-09T05:58:20;4.55;;;2.80;;
55931;SDS011;41837;55.700;37.984;2023-07-09T06:00:49;4.20;;;2.30;;
55931;SDS011;41837;55.700;37.984;2023-07-09T06:03:20;4.60;;;2.72;;
55931;SDS011;41837;55.700;37.984;2023-07-09T06:05:57;4.05;;;2.50;;
55931;SDS011;41837;55.700;37.984;2023-07-09T06:08:26;5.10;;;2.28;;
55931;SDS011;41837;55.700;37.984;2023-07-09T06:11:00;4.07;;;2.10;;
55931;SDS011;41837;55.700;37.984;2023-07-09T06:13:28;6.53;;;2.20;;
55931;SDS011;41837;55.700;37.984;2023-07-09T06:15:59;5.32;;;2.40;;
55931;SDS011;41837;55.700;37.984;2023-07-09T06:18:26;3.42;;;2.00;;
55931;SDS011;41837;55.700;37.984;2023-07-09T06:20:57;4.78;;;2.38;;
55931;SDS011;41837;55.700;37.984;2023-07-09T06:23:25;3.17;;;1.90;;
55931;SDS011;41837;55.700;37.984;2023-07-09T06:25:51;2.28;;;2.00;;
55931;SDS011;41837;55.700;37.984;2023-07-09T06:28:20;3.20;;;2.50;;
55931;SDS011;41837;55.700;37.984;2023-07-09T06:30:49;5.85;;;2.60;;
55931;SDS011;41837;55.700;37.984;2023-07-09T06:33:16;3.33;;;2.17;;
55931;SDS011;41837;55.700;37.984;2023-07-09T06:35:48;3.40;;;2.05;;
55931;SDS011;41837;55.700;37.984;2023-07-09T06:38:22;2.85;;;2.00;;
55931;SDS011;41837;55.700;37.984;2023-07-09T06:40:48;4.07;;;1.73;;
55931;SDS011;41837;55.700;37.984;2023-07-09T06:43:16;5.70;;;2.10;;
55931;SDS011;41837;55.700;37.984;2023-07-09T06:48:24;3.05;;;1.88;;
55931;SDS011;41837;55.700;37.984;2023-07-09T06:50:55;6.35;;;2.33;;
55931;SDS011;41837;55.700;37.984;2023-07-09T06:53:22;3.38;;;2.30;;
55931;SDS011;41837;55.700;37.984;2023-07-09T06:55:49;3.78;;;1.73;;
55931;SDS011;41837;55.700;37.984;2023-07-09T06:58:16;5.95;;;2.20;;
55931;SDS011;41837;55.700;37.984;2023-07-09T07:00:43;5.18;;;2.50;;
55931;SDS011;41837;55.700;37.984;2023-07-09T07:03:09;4.28;;;2.08;;
55931;SDS011;41837;55.700;37.984;2023-07-09T07:05:35;5.05;;;2.15;;
55931;SDS011;41837;55.700;37.984;2023-07-09T07:08:02;3.13;;;2.30;;
55931;SDS011;41837;55.700;37.984;2023-07-09T07:10:29;3.70;;;1.70;;
55931;SDS011;41837;55.700;37.984;2023-07-09T07:12:56;3.50;;;1.90;;
55931;SDS011;41837;55.700;37.984;2023-07-09T07:15:22;2.75;;;1.73;;
55931;SDS011;41837;55.700;37.984;2023-07-09T07:17:48;4.97;;;2.17;;
55931;SDS011;41837;55.700;37.984;2023-07-09T07:20:15;4.35;;;2.00;;
55931;SDS011;41837;55.700;37.984;2023-07-09T07:22:42;3.95;;;2.20;;
55931;SDS011;41837;55.700;37.984;2023-07-09T07:28:25;3.15;;;2.13;;
55931;SDS011;41837;55.700;37.984;2023-07-09T07:31:04;4.25;;;2.20;;
55931;SDS011;41837;55.700;37.984;2023-07-09T07:33:34;4.78;;;2.30;;
55931;SDS011;41837;55.700;37.984;2023-07-09T07:36:00;4.97;;;2.03;;
55931;SDS011;41837;55.700;37.984;2023-07-09T07:38:30;9.82;;;2.40;;
55931;SDS011;41837;55.700;37.984;2023-07-09T07:40:55;4.82;;;2.17;;
55931;SDS011;41837;55.700;37.984;2023-07-09T07:43:22;4.80;;;2.13;;
55931;SDS011;41837;55.700;37.984;2023-07-09T07:45:49;6.10;;;2.35;;
55931;SDS011;41837;55.700;37.984;2023-07-09T07:48:15;4.68;;;2.30;;
55931;SDS011;41837;55.700;37.984;2023-07-09T07:50:41;3.47;;;2.20;;
55931;SDS011;41837;55.700;37.984;2023-07-09T07:53:08;2.97;;;2.20;;
55931;SDS011;41837;55.700;37.984;2023-07-09T07:55:36;9.13;;;2.20;;
55931;SDS011;41837;55.700;37.984;2023-07-09T07:58:02;4.63;;;2.10;;
55931;SDS011;41837;55.700;37.984;2023-07-09T08:00:30;3.75;;;2.50;;
55931;SDS011;41837;55.700;37.984;2023-07-09T08:02:57;4.30;;;2.08;;
55931;SDS011;41837;55.700;37.984;2023-07-09T08:05:23;3.25;;;2.10;;
55931;SDS011;41837;55.700;37.984;2023-07-09T08:07:50;4.45;;;2.20;;
55931;SDS011;41837;55.700;37.984;2023-07-09T08:10:16;5.45;;;1.80;;
55931;SDS011;41837;55.700;37.984;2023-07-09T08:12:45;7.32;;;2.42;;
55931;SDS011;41837;55.700;37.984;2023-07-09T08:15:11;3.50;;;2.00;;
55931;SDS011;41837;55.700;37.984;2023-07-09T08:17:38;6.30;;;2.67;;
55931;SDS011;41837;55.700;37.984;2023-07-09T08:20:05;8.63;;;2.22;;
55931;SDS011;41837;55.700;37.984;2023-07-09T08:22:31;3.70;;;2.00;;
55931;SDS011;41837;55.700;37.984;2023-07-09T08:24:57;7.47;;;2.17;;
55931;SDS011;41837;55.700;37.984;2023-07-09T08:27:24;3.47;;;2.17;;
55931;SDS011;41837;55.700;37.984;2023-07-09T08:29:50;4.85;;;2.10;;
55931;SDS011;41837;55.700;37.984;2023-07-09T08:32:17;2.92;;;1.92;;
55931;SDS011;41837;55.700;37.984;2023-07-09T08:34:43;7.80;;;2.30;;
55931;SDS011;41837;55.700;37.984;2023-07-09T08:37:09;3.22;;;2.00;;
55931;SDS011;41837;55.700;37.984;2023-07-09T08:39:35;5.30;;;1.70;;
55931;SDS011;41837;55.700;37.984;2023-07-09T08:42:07;6.50;;;1.83;;
55931;SDS011;41837;55.700;37.984;2023-07-09T08:44:41;3.42;;;1.77;;
55931;SDS011;41837;55.700;37.984;2023-07-09T08:47:17;2.78;;;1.75;;
55931;SDS011;41837;55.700;37.984;2023-07-09T08:50:02;4.65;;;1.90;;
55931;SDS011;41837;55.700;37.984;2023-07-09T08:52:32;3.25;;;2.00;;
55931;SDS011;41837;55.700;37.984;2023-07-09T08:55:04;3.97;;;2.13;;
55931;SDS011;41837;55.700;37.984;2023-07-09T08:57:42;2.92;;;1.63;;
55931;SDS011;41837;55.700;37.984;2023-07-09T09:03:05;3.15;;;1.77;;
55931;SDS011;41837;55.700;37.984;2023-07-09T09:05:53;3.88;;;1.90;;
55931;SDS011;41837;55.700;37.984;2023-07-09T09:11:14;5.53;;;1.90;;
55931;SDS011;41837;55.700;37.984;2023-07-09T09:13:53;3.17;;;1.90;;
55931;SDS011;41837;55.700;37.984;2023-07-09T09:16:24;5.63;;;1.90;;
55931;SDS011;41837;55.700;37.984;2023-07-09T09:18:55;6.07;;;1.98;;
55931;SDS011;41837;55.700;37.984;2023-07-09T09:21:58;4.68;;;2.22;;
55931;SDS011;41837;55.700;37.984;2023-07-09T09:24:30;12.80;;;2.25;;
55931;SDS011;41837;55.700;37.984;2023-07-09T09:27:00;4.53;;;2.70;;
55931;SDS011;41837;55.700;37.984;2023-07-09T09:29:27;5.03;;;2.40;;
55931;SDS011;41837;55.700;37.984;2023-07-09T09:31:54;8.13;;;2.90;;
55931;SDS011;41837;55.700;37.984;2023-07-09T09:34:24;4.38;;;1.88;;
55931;SDS011;41837;55.700;37.984;2023-07-09T09:36:54;6.03;;;2.80;;
55931;SDS011;41837;55.700;37.984;2023-07-09T09:39:22;8.55;;;2.70;;
55931;SDS011;41837;55.700;37.984;2023-07-09T09:41:51;5.70;;;1.80;;
55931;SDS011;41837;55.700;37.984;2023-07-09T09:44:24;3.45;;;1.92;;
55931;SDS011;41837;55.700;37.984;2023-07-09T09:46:52;3.53;;;1.85;;
55931;SDS011;41837;55.700;37.984;2023-07-09T09:49:21;5.10;;;2.15;;
55931;SDS011;41837;55.700;37.984;2023-07-09T09:51:47;5.63;;;1.70;;
55931;SDS011;41837;55.700;37.984;2023-07-09T09:54:19;2.47;;;1.80;;
55931;SDS011;41837;55.700;37.984;2023-07-09T09:56:52;3.80;;;1.90;;
55931;SDS011;41837;55.700;37.984;2023-07-09T09:59:21;2.80;;;1.88;;
55931;SDS011;41837;55.700;37.984;2023-07-09T10:01:57;2.58;;;1.85;;
55931;SDS011;41837;55.700;37.984;2023-07-09T10:04:26;3.92;;;2.15;;
55931;SDS011;41837;55.700;37.984;2023-07-09T10:06:56;3.92;;;1.77;;
55931;SDS011;41837;55.700;37.984;2023-07-09T10:39:04;8.30;;;2.08;;
55931;SDS011;41837;55.700;37.984;2023-07-09T10:41:37;7.10;;;2.20;;
55931;SDS011;41837;55.700;37.984;2023-07-09T10:46:42;3.38;;;1.90;;
55931;SDS011;41837;55.700;37.984;2023-07-09T10:49:12;5.82;;;1.63;;
55931;SDS011;41837;55.700;37.984;2023-07-09T11:00:07;6.63;;;1.95;;
55931;SDS011;41837;55.700;37.984;2023-07-09T11:02:37;4.32;;;1.70;;
55931;SDS011;41837;55.700;37.984;2023-07-09T11:05:04;3.45;;;1.70;;
55931;SDS011;41837;55.700;37.984;2023-07-09T11:07:36;2.85;;;1.75;;
55931;SDS011;41837;55.700;37.984;2023-07-09T11:10:51;2.58;;;1.67;;
55931;SDS011;41837;55.700;37.984;2023-07-09T11:13:05;3.50;;;1.73;;
55931;SDS011;41837;55.700;37.984;2023-07-09T11:15:40;5.97;;;1.83;;
55931;SDS011;41837;55.700;37.984;2023-07-09T11:18:12;3.60;;;1.88;;
55931;SDS011;41837;55.700;37.984;2023-07-09T11:21:00;3.63;;;2.03;;
55931;SDS011;41837;55.700;37.984;2023-07-09T11:26:31;3.05;;;1.83;;
55931;SDS011;41837;55.700;37.984;2023-07-09T11:31:39;5.13;;;1.90;;
55931;SDS011;41837;55.700;37.984;2023-07-09T11:37:13;4.47;;;2.08;;
55931;SDS011;41837;55.700;37.984;2023-07-09T11:42:04;5.88;;;1.83;;
55931;SDS011;41837;55.700;37.984;2023-07-09T11:44:48;2.35;;;1.52;;
55931;SDS011;41837;55.700;37.984;2023-07-09T11:47:22;4.45;;;1.65;;
55931;SDS011;41837;55.700;37.984;2023-07-09T11:52:32;4.68;;;1.88;;
55931;SDS011;41837;55.700;37.984;2023-07-09T11:55:03;3.47;;;1.83;;
55931;SDS011;41837;55.700;37.984;2023-07-09T11:58:03;3.80;;;1.80;;
55931;SDS011;41837;55.700;37.984;2023-07-09T12:00:37;4.78;;;2.05;;
55931;SDS011;41837;55.700;37.984;2023-07-09T12:03:09;3.42;;;1.90;;
55931;SDS011;41837;55.700;37.984;2023-07-09T12:05:42;3.22;;;1.70;;
55931;SDS011;41837;55.700;37.984;2023-07-09T12:08:20;3.88;;;1.75;;
55931;SDS011;41837;55.700;37.984;2023-07-09T12:10:52;5.80;;;1.85;;
55931;SDS011;41837;55.700;37.984;2023-07-09T12:13:19;2.53;;;1.65;;
55931;SDS011;41837;55.700;37.984;2023-07-09T12:15:45;3.80;;;1.98;;
55931;SDS011;41837;55.700;37.984;2023-07-09T12:18:13;3.63;;;1.77;;
55931;SDS011;41837;55.700;37.984;2023-07-09T12:20:42;7.78;;;1.98;;
55931;SDS011;41837;55.700;37.984;2023-07-09T12:25:51;5.00;;;1.98;;
55931;SDS011;41837;55.700;37.984;2023-07-09T12:28:20;5.32;;;2.97;;
55931;SDS011;41837;55.700;37.984;2023-07-09T12:30:49;5.38;;;2.58;;
55931;SDS011;41837;55.700;37.984;2023-07-09T12:33:21;4.32;;;2.30;;
55931;SDS011;41837;55.700;37.984;2023-07-09T12:35:53;4.00;;;1.90;;
55931;SDS011;41837;55.700;37.984;2023-07-09T12:38:29;6.05;;;2.25;;
55931;SDS011;41837;55.700;37.984;2023-07-09T12:41:00;2.35;;;1.90;;
55931;SDS011;41837;55.700;37.984;2023-07-09T12:43:30;2.88;;;1.83;;
55931;SDS011;41837;55.700;37.984;2023-07-09T12:46:00;3.13;;;1.60;;
55931;SDS011;41837;55.700;37.984;2023-07-09T12:48:28;2.95;;;1.70;;
55931;SDS011;41837;55.700;37.984;2023-07-09T12:50:56;10.98;;;2.03;;
55931;SDS011;41837;55.700;37.984;2023-07-09T12:53:25;4.43;;;1.77;;
55931;SDS011;41837;55.700;37.984;2023-07-09T12:56:00;3.67;;;1.95;;
55931;SDS011;41837;55.700;37.984;2023-07-09T12:58:29;5.07;;;1.70;;
55931;SDS011;41837;55.700;37.984;2023-07-09T13:00:59;5.90;;;1.40;;
55931;SDS011;41837;55.700;37.984;2023-07-09T13:03:31;3.10;;;1.92;;
55931;SDS011;41837;55.700;37.984;2023-07-09T13:06:00;9.10;;;2.17;;
55931;SDS011;41837;55.700;37.984;2023-07-09T13:08:39;2.88;;;1.73;;
55931;SDS011;41837;55.700;37.984;2023-07-09T13:11:15;2.58;;;1.80;;
55931;SDS011;41837;55.700;37.984;2023-07-09T13:13:52;1.98;;;1.65;;
55931;SDS011;41837;55.700;37.984;2023-07-09T13:16:37;3.35;;;1.92;;
55931;SDS011;41837;55.700;37.984;2023-07-09T13:21:31;2.55;;;1.73;;
55931;SDS011;41837;55.700;37.984;2023-07-09T13:23:58;3.47;;;1.63;;
55931;SDS011;41837;55.700;37.984;2023-07-09T13:26:25;4.03;;;1.80;;
55931;SDS011;41837;55.700;37.984;2023-07-09T13:28:52;5.25;;;2.10;;
55931;SDS011;41837;55.700;37.984;2023-07-09T13:31:19;4.05;;;1.95;;
55931;SDS011;41837;55.700;37.984;2023-07-09T13:33:51;17.67;;;2.58;;
55931;SDS011;41837;55.700;37.984;2023-07-09T13:36:20;4.10;;;1.95;;
55931;SDS011;41837;55.700;37.984;2023-07-09T13:38:47;5.47;;;2.15;;
55931;SDS011;41837;55.700;37.984;2023-07-09T13:41:18;7.63;;;2.60;;
55931;SDS011;41837;55.700;37.984;2023-07-09T13:46:14;4.25;;;2.15;;
55931;SDS011;41837;55.700;37.984;2023-07-09T13:48:42;3.35;;;2.13;;
55931;SDS011;41837;55.700;37.984;2023-07-09T13:51:17;3.65;;;1.85;;
55931;SDS011;41837;55.700;37.984;2023-07-09T13:53:51;6.60;;;2.00;;
55931;SDS011;41837;55.700;37.984;2023-07-09T13:56:20;3.13;;;1.70;;
55931;SDS011;41837;55.700;37.984;2023-07-09T13:58:48;3.33;;;1.70;;
55931;SDS011;41837;55.700;37.984;2023-07-09T14:01:17;4.85;;;1.83;;
55931;SDS011;41837;55.700;37.984;2023-07-09T14:03:47;5.95;;;1.77;;
55931;SDS011;41837;55.700;37.984;2023-07-09T14:06:15;4.20;;;2.03;;
55931;SDS011;41837;55.700;37.984;2023-07-09T14:08:42;5.25;;;2.15;;
55931;SDS011;41837;55.700;37.984;2023-07-09T14:11:12;2.85;;;1.77;;
55931;SDS011;41837;55.700;37.984;2023-07-09T14:13:41;5.03;;;1.60;;
55931;SDS011;41837;55.700;37.984;2023-07-09T14:16:09;3.45;;;1.67;;
55931;SDS011;41837;55.700;37.984;2023-07-09T14:18:38;2.95;;;1.73;;
55931;SDS011;41837;55.700;37.984;2023-07-09T14:21:15;3.22;;;1.85;;
55931;SDS011;41837;55.700;37.984;2023-07-09T14:23:45;3.63;;;1.63;;
55931;SDS011;41837;55.700;37.984;2023-07-09T14:26:11;4.60;;;1.88;;
55931;SDS011;41837;55.700;37.984;2023-07-09T14:28:38;4.07;;;2.10;;
55931;SDS011;41837;55.700;37.984;2023-07-09T14:31:07;4.90;;;2.40;;
55931;SDS011;41837;55.700;37.984;2023-07-09T14:33:48;6.28;;;2.60;;
55931;SDS011;41837;55.700;37.984;2023-07-09T14:36:17;5.13;;;2.40;;
55931;SDS011;41837;55.700;37.984;2023-07-09T14:38:43;5.57;;;2.70;;
55931;SDS011;41837;55.700;37.984;2023-07-09T14:41:27;6.05;;;3.00;;
55931;SDS011;41837;55.700;37.984;2023-07-09T14:43:54;6.93;;;2.92;;
55931;SDS011;41837;55.700;37.984;2023-07-09T14:46:23;3.95;;;2.40;;
55931;SDS011;41837;55.700;37.984;2023-07-09T14:48:49;4.85;;;2.35;;
55931;SDS011;41837;55.700;37.984;2023-07-09T14:51:17;4.93;;;2.20;;
55931;SDS011;41837;55.700;37.984;2023-07-09T14:53:44;4.60;;;2.28;;
55931;SDS011;41837;55.700;37.984;2023-07-09T14:56:11;4.47;;;2.20;;
55931;SDS011;41837;55.700;37.984;2023-07-09T14:58:39;2.92;;;1.92;;
55931;SDS011;41837;55.700;37.984;2023-07-09T15:01:09;4.10;;;1.77;;
55931;SDS011;41837;55.700;37.984;2023-07-09T15:06:06;3.25;;;1.75;;
55931;SDS011;41837;55.700;37.984;2023-07-09T15:08:32;2.58;;;1.48;;
55931;SDS011;41837;55.700;37.984;2023-07-09T15:10:59;7.63;;;1.90;;
55931;SDS011;41837;55.700;37.984;2023-07-09T15:13:30;3.60;;;1.58;;
55931;SDS011;41837;55.700;37.984;2023-07-09T15:15:58;4.75;;;1.88;;
55931;SDS011;41837;55.700;37.984;2023-07-09T15:18:25;4.68;;;2.28;;
55931;SDS011;41837;55.700;37.984;2023-07-09T15:21:02;6.95;;;2.90;;
55931;SDS011;41837;55.700;37.984;2023-07-09T15:23:30;10.98;;;7.20;;
55931;SDS011;41837;55.700;37.984;2023-07-09T15:25:56;7.60;;;3.85;;
55931;SDS011;41837;55.700;37.984;2023-07-09T15:28:23;7.22;;;2.30;;
55931;SDS011;41837;55.700;37.984;2023-07-09T15:30:50;3.55;;;1.67;;
55931;SDS011;41837;55.700;37.984;2023-07-09T15:33:17;24.80;;;5.15;;
55931;SDS011;41837;55.700;37.984;2023-07-09T15:35:46;3.55;;;2.10;;
55931;SDS011;41837;55.700;37.984;2023-07-09T15:38:30;9.30;;;2.10;;
55931;SDS011;41837;55.700;37.984;2023-07-09T15:40:57;4.28;;;1.80;;
55931;SDS011;41837;55.700;37.984;2023-07-09T15:43:24;4.95;;;2.40;;
55931;SDS011;41837;55.700;37.984;2023-07-09T15:45:53;4.03;;;1.90;;
55931;SDS011;41837;55.700;37.984;2023-07-09T15:50:59;5.50;;;2.17;;
55931;SDS011;41837;55.700;37.984;2023-07-09T15:53:28;5.90;;;1.80;;
55931;SDS011;41837;55.700;37.984;2023-07-09T15:56:02;3.13;;;1.85;;
55931;SDS011;41837;55.700;37.984;2023-07-09T15:58:42;6.05;;;2.20;;
55931;SDS011;41837;55.700;37.984;2023-07-09T16:01:14;5.85;;;1.83;;
55931;SDS011;41837;55.700;37.984;2023-07-09T16:03:43;3.85;;;1.95;;
55931;SDS011;41837;55.700;37.984;2023-07-09T16:06:14;5.00;;;2.15;;